createdAt,value
2024-01-17T00:00:17.713Z,99357.54
2024-01-17T00:03:05.112Z,99355.67
2024-01-17T00:05:32.301Z,99357.35
2024-01-17T00:07:59.406Z,99354.88
2024-01-17T00:10:26.446Z,99356.59
2024-01-17T00:12:53.506Z,99355.32
2024-01-17T00:15:20.558Z,99342.19
2024-01-17T00:17:50.274Z,99347.91
2024-01-17T00:20:17.354Z,99346.26
2024-01-17T00:22:45.605Z,99348.80
2024-01-17T00:25:12.820Z,99352.58
2024-01-17T00:27:39.863Z,99352.54
2024-01-17T00:30:07.905Z,99349.54
2024-01-17T00:32:36.085Z,99349.77
2024-01-17T00:35:04.044Z,99346.27
2024-01-17T00:37:31.123Z,99344.02
2024-01-17T00:39:58.242Z,99346.68
2024-01-17T00:42:27.721Z,99347.09
2024-01-17T00:44:55.379Z,99343.73
2024-01-17T00:47:22.855Z,99345.83
2024-01-17T00:49:50.012Z,99340.73
2024-01-17T00:52:17.169Z,99342.79
2024-01-17T00:54:44.461Z,99342.71
2024-01-17T00:57:11.448Z,99347.05
2024-01-17T00:59:38.508Z,99349.83
2024-01-17T01:02:05.548Z,99345.70
2024-01-17T01:04:32.862Z,99344.54
2024-01-17T01:06:59.870Z,99346.05
2024-01-17T01:09:27.103Z,99341.03
2024-01-17T01:11:54.112Z,99340.80
2024-01-17T01:14:21.230Z,99344.48
2024-01-17T01:16:48.172Z,99341.41
2024-01-17T01:19:15.319Z,99339.71
2024-01-17T01:21:43.754Z,99338.92
2024-01-17T01:24:10.778Z,99333.19
2024-01-17T01:26:38.148Z,99335.52
2024-01-17T01:29:05.199Z,99335.64
2024-01-17T01:31:32.169Z,99337.20
2024-01-17T01:33:59.364Z,99338.54
2024-01-17T01:36:26.487Z,99334.98
2024-01-17T01:38:53.489Z,99331.95
2024-01-17T01:41:20.528Z,99330.08
2024-01-17T01:43:47.498Z,99330.42
2024-01-17T01:46:17.610Z,99332.44
2024-01-17T01:48:45.394Z,99325.30
2024-01-17T01:51:13.357Z,99322.90
2024-01-17T01:53:46.229Z,99321.71
2024-01-17T01:56:16.234Z,99322.45
2024-01-17T01:58:47.306Z,99318.55
2024-01-17T02:01:15.912Z,99316.18
2024-01-17T02:03:44.809Z,99314.59
2024-01-17T02:06:14.982Z,99311.66
2024-01-17T02:08:42.310Z,99310.31
2024-01-17T02:11:11.989Z,99307.86
2024-01-17T02:13:39.070Z,99310.60
2024-01-17T02:16:07.020Z,99307.49
2024-01-17T02:18:34.337Z,99304.75
2024-01-17T02:21:01.794Z,99303.17
2024-01-17T02:23:30.321Z,99296.20
2024-01-17T02:25:58.991Z,99300.16
2024-01-17T02:28:30.771Z,99295.95
2024-01-17T02:30:59.573Z,99297.15
2024-01-17T02:33:27.380Z,99296.10
2024-01-17T02:35:55.362Z,99292.86
2024-01-17T02:38:22.511Z,99292.02
2024-01-17T02:40:49.475Z,99294.61
2024-01-17T02:43:16.478Z,99288.59
2024-01-17T02:45:43.670Z,99285.52
2024-01-17T02:48:10.866Z,99284.11
2024-01-17T02:50:38.010Z,99284.36
2024-01-17T02:53:05.097Z,99283.52
2024-01-17T02:55:32.036Z,99285.92
2024-01-17T02:58:00.914Z,99286.10
2024-01-17T03:00:27.925Z,99286.14
2024-01-17T03:02:55.385Z,99281.40
2024-01-17T03:05:22.953Z,99279.00
2024-01-17T03:07:49.966Z,99277.27
2024-01-17T03:10:17.083Z,99275.91
2024-01-17T03:12:44.210Z,99277.51
2024-01-17T03:15:12.479Z,99276.80
2024-01-17T03:17:40.022Z,99282.71
2024-01-17T03:20:08.154Z,99283.08
2024-01-17T03:22:35.216Z,99276.38
2024-01-17T03:25:02.624Z,99279.55
2024-01-17T03:27:29.678Z,99281.92
2024-01-17T03:29:56.836Z,99277.95
2024-01-17T03:32:24.053Z,99276.99
2024-01-17T03:34:53.082Z,99281.73
2024-01-17T03:37:20.210Z,99273.42
2024-01-17T03:39:47.268Z,99271.88
2024-01-17T03:42:17.966Z,99272.64
2024-01-17T03:44:45.531Z,99274.67
2024-01-17T03:47:13.579Z,99271.59
2024-01-17T03:49:40.858Z,99270.61
2024-01-17T03:52:10.935Z,99264.73
2024-01-17T03:54:38.122Z,99266.71
2024-01-17T03:57:06.587Z,99269.32
2024-01-17T03:59:33.841Z,99273.60
2024-01-17T04:02:01.047Z,99271.34
2024-01-17T04:04:28.414Z,99268.33
2024-01-17T04:06:56.716Z,99267.96
2024-01-17T04:09:24.209Z,99264.52
2024-01-17T04:11:51.697Z,99261.33
2024-01-17T04:14:19.036Z,99264.90
2024-01-17T04:16:46.105Z,99267.70
2024-01-17T04:19:13.220Z,99265.58
2024-01-17T04:21:40.286Z,99264.52
2024-01-17T04:24:07.397Z,99261.70
2024-01-17T04:26:34.684Z,99261.08
2024-01-17T04:29:01.888Z,99265.40
2024-01-17T04:31:30.243Z,99267.95
2024-01-17T04:33:59.434Z,99267.77
2024-01-17T04:36:31.381Z,99266.98
2024-01-17T04:38:59.124Z,99272.07
2024-01-17T04:41:26.511Z,99268.85
2024-01-17T04:43:53.785Z,99261.89
2024-01-17T04:46:20.805Z,99261.34
2024-01-17T04:48:48.323Z,99257.25
2024-01-17T04:51:16.765Z,99253.70
2024-01-17T04:53:44.260Z,99250.86
2024-01-17T04:56:13.736Z,99250.55
2024-01-17T04:58:41.280Z,99255.13
2024-01-17T05:01:08.546Z,99254.09
2024-01-17T05:03:35.944Z,99258.85
2024-01-17T05:06:04.058Z,99256.96
2024-01-17T05:08:31.409Z,99253.05
2024-01-17T05:10:58.798Z,99249.08
2024-01-17T05:13:25.772Z,99249.11
2024-01-17T05:15:52.809Z,99252.50
2024-01-17T05:18:19.996Z,99253.73
2024-01-17T05:20:48.707Z,99249.52
2024-01-17T05:23:15.978Z,99249.48
2024-01-17T05:25:42.961Z,99253.35
2024-01-17T05:28:10.093Z,99249.36
2024-01-17T05:30:37.439Z,99244.42
2024-01-17T05:33:05.241Z,99249.80
2024-01-17T05:35:32.517Z,99241.63
2024-01-17T05:38:01.057Z,99234.98
2024-01-17T05:40:28.645Z,99241.72
2024-01-17T05:42:56.088Z,99243.36
2024-01-17T05:45:23.158Z,99231.78
2024-01-17T05:47:50.466Z,99220.41
2024-01-17T05:50:17.608Z,99223.88
2024-01-17T05:52:50.088Z,99222.92
2024-01-17T05:55:18.343Z,99224.17
2024-01-17T05:57:45.389Z,99224.05
2024-01-17T06:00:13.909Z,99222.30
2024-01-17T06:02:42.943Z,99220.84
2024-01-17T06:05:11.225Z,99223.27
2024-01-17T06:07:39.464Z,99221.41
2024-01-17T06:10:07.123Z,99220.96
2024-01-17T06:12:34.134Z,99218.77
2024-01-17T06:15:01.222Z,99210.19
2024-01-17T06:17:28.664Z,99210.58
2024-01-17T06:19:55.738Z,99206.79
2024-01-17T06:22:22.849Z,99204.63
2024-01-17T06:24:49.958Z,99202.23
2024-01-17T06:27:17.481Z,99204.66
2024-01-17T06:29:46.196Z,99202.42
2024-01-17T06:32:14.218Z,99200.84
2024-01-17T06:34:41.747Z,99200.07
2024-01-17T06:37:08.867Z,99199.17
2024-01-17T06:39:36.078Z,99193.80
2024-01-17T06:42:04.312Z,99190.61
2024-01-17T06:44:31.897Z,99193.05
2024-01-17T06:46:59.494Z,99197.71
2024-01-17T06:49:27.918Z,99198.38
2024-01-17T06:51:57.042Z,99200.19
2024-01-17T06:54:24.366Z,99202.74
2024-01-17T06:56:51.671Z,99200.23
2024-01-17T06:59:18.716Z,99194.25
2024-01-17T07:01:45.670Z,99192.67
2024-01-17T07:04:12.788Z,99187.86
2024-01-17T07:06:39.967Z,99182.34
2024-01-17T07:09:08.786Z,99182.29
2024-01-17T07:11:36.203Z,99176.71
2024-01-17T07:14:04.402Z,99174.67
2024-01-17T07:16:31.972Z,99175.32
2024-01-17T07:19:00.218Z,99166.38
2024-01-17T07:21:27.904Z,99162.95
2024-01-17T07:23:55.218Z,99160.86
2024-01-17T07:26:22.303Z,99157.23
2024-01-17T07:28:49.434Z,99155.08
2024-01-17T07:31:17.464Z,99152.66
2024-01-17T07:33:44.595Z,99151.06
2024-01-17T07:36:11.951Z,99140.21
2024-01-17T07:38:39.155Z,99141.17
2024-01-17T07:41:06.654Z,99140.05
2024-01-17T07:43:35.456Z,99132.93
2024-01-17T07:46:02.743Z,99126.38
2024-01-17T07:48:29.964Z,99127.77
2024-01-17T07:50:57.441Z,99128.62
2024-01-17T07:53:28.459Z,99124.52
2024-01-17T07:55:57.374Z,99116.52
2024-01-17T07:58:24.713Z,99113.46
2024-01-17T08:00:51.758Z,99113.06
2024-01-17T08:03:19.113Z,99106.37
2024-01-17T08:05:46.402Z,99099.82
2024-01-17T08:08:13.418Z,99097.87
2024-01-17T08:10:40.571Z,99094.63
2024-01-17T08:13:07.536Z,99091.25
2024-01-17T08:15:34.608Z,99090.88
2024-01-17T08:18:02.628Z,99092.73
2024-01-17T08:20:30.052Z,99091.71
2024-01-17T08:22:57.185Z,99091.33
2024-01-17T08:25:26.363Z,99086.06
2024-01-17T08:27:55.675Z,99080.71
2024-01-17T08:30:23.051Z,99078.70
2024-01-17T08:32:50.416Z,99072.13
2024-01-17T08:35:17.614Z,99065.20
2024-01-17T08:37:44.650Z,99067.80
2024-01-17T08:40:13.108Z,99064.33
2024-01-17T08:42:40.893Z,99060.07
2024-01-17T08:45:08.884Z,99055.10
2024-01-17T08:47:36.163Z,99054.09
2024-01-17T08:50:04.374Z,99047.90
2024-01-17T08:52:31.538Z,99045.11
2024-01-17T08:55:02.312Z,99038.42
2024-01-17T08:57:29.416Z,99035.23
2024-01-17T08:59:56.401Z,99028.80
2024-01-17T09:02:23.338Z,99029.02
2024-01-17T09:04:50.293Z,99035.38
2024-01-17T09:07:17.318Z,99023.27
2024-01-17T09:09:44.352Z,99018.17
2024-01-17T09:12:14.149Z,99013.03
2024-01-17T09:14:44.653Z,99011.81
2024-01-17T09:17:11.771Z,99009.58
2024-01-17T09:19:38.951Z,99003.06
2024-01-17T09:22:05.967Z,99008.27
2024-01-17T09:24:33.148Z,99002.22
2024-01-17T09:27:00.109Z,99001.58
2024-01-17T09:29:27.193Z,98993.97
2024-01-17T09:31:54.632Z,98985.81
2024-01-17T09:34:21.822Z,98980.77
2024-01-17T09:36:51.292Z,98975.03
2024-01-17T09:39:18.520Z,98970.71
2024-01-17T09:41:45.959Z,98969.00
2024-01-17T09:44:13.321Z,98965.15
2024-01-17T09:46:44.299Z,98966.46
2024-01-17T09:49:11.657Z,98962.12
2024-01-17T09:51:39.048Z,98961.55
2024-01-17T09:54:07.241Z,98958.67
2024-01-17T09:56:36.434Z,98951.71
2024-01-17T09:59:18.604Z,98942.87
2024-01-17T10:01:46.154Z,98938.35
2024-01-17T10:04:15.237Z,98932.29
2024-01-17T10:06:47.168Z,98932.57
2024-01-17T10:09:16.167Z,98920.34
2024-01-17T10:11:43.595Z,98911.86
2024-01-17T10:14:10.961Z,98905.66
2024-01-17T10:16:37.941Z,98895.86
2024-01-17T10:19:06.628Z,98886.26
2024-01-17T10:21:34.771Z,98882.38
2024-01-17T10:24:03.073Z,98871.70
2024-01-17T10:26:31.477Z,98860.71
2024-01-17T10:28:58.806Z,98858.25
2024-01-17T10:31:25.940Z,98856.77
2024-01-17T10:33:54.699Z,98851.17
2024-01-17T10:36:22.895Z,98843.02
2024-01-17T10:38:53.170Z,98832.89
2024-01-17T10:41:20.236Z,98819.92
2024-01-17T10:43:57.881Z,98820.59
2024-01-17T10:46:25.779Z,98817.30
2024-01-17T10:48:53.421Z,98811.14
2024-01-17T10:51:25.002Z,98802.21
2024-01-17T10:53:57.168Z,98799.95
2024-01-17T10:56:27.516Z,98792.86
2024-01-17T10:58:56.714Z,98786.98
2024-01-17T11:01:36.797Z,98781.68
2024-01-17T11:04:24.414Z,98774.23
2024-01-17T11:06:53.217Z,98770.23
2024-01-17T11:09:23.214Z,98766.74
2024-01-17T11:11:51.217Z,98762.45
2024-01-17T11:14:19.771Z,98751.34
2024-01-17T11:16:49.920Z,98747.67
2024-01-17T11:19:18.818Z,98743.20
2024-01-17T11:21:46.153Z,98730.64
2024-01-17T11:24:51.804Z,98725.02
2024-01-17T11:27:34.952Z,98718.83
2024-01-17T11:30:25.909Z,98710.50
2024-01-17T11:33:11.530Z,98703.35
2024-01-17T11:35:50.142Z,98695.55
2024-01-17T11:38:23.255Z,98688.05
2024-01-17T11:40:58.620Z,98685.07
2024-01-17T11:43:33.038Z,98686.34
2024-01-17T11:46:01.264Z,98680.34
2024-01-17T11:48:33.228Z,98677.32
2024-01-17T11:51:12.650Z,98673.05
2024-01-17T11:53:42.285Z,98665.30
2024-01-17T11:56:11.091Z,98665.55
2024-01-17T11:58:43.441Z,98657.79
2024-01-17T12:01:45.958Z,98654.70
2024-01-17T12:04:15.189Z,98651.93
2024-01-17T12:06:44.100Z,98648.66
2024-01-17T12:09:17.083Z,98647.16
2024-01-17T12:11:44.262Z,98642.69
2024-01-17T12:14:11.273Z,98645.08
2024-01-17T12:16:38.349Z,98643.48
2024-01-17T12:19:05.730Z,98640.41
2024-01-17T12:21:33.271Z,98632.48
2024-01-17T12:24:00.374Z,98630.33
2024-01-17T12:26:29.866Z,98626.95
2024-01-17T12:29:08.882Z,98617.27
2024-01-17T12:31:37.148Z,98614.26
2024-01-17T12:34:06.422Z,98616.95
2024-01-17T12:36:35.693Z,98611.70
2024-01-17T12:39:05.604Z,98607.52
2024-01-17T12:41:34.611Z,98609.59
2024-01-17T12:44:01.699Z,98602.67
2024-01-17T12:46:29.366Z,98595.91
2024-01-17T12:48:58.352Z,98591.02
2024-01-17T12:51:26.029Z,98582.75
2024-01-17T12:53:55.034Z,98580.42
2024-01-17T12:56:24.788Z,98576.59
2024-01-17T12:58:53.249Z,98577.03
2024-01-17T13:01:24.490Z,98568.39
2024-01-17T13:04:02.756Z,98565.95
2024-01-17T13:06:29.974Z,98561.33
2024-01-17T13:08:59.355Z,98565.91
2024-01-17T13:11:26.583Z,98549.27
2024-01-17T13:14:00.331Z,98538.02
2024-01-17T13:16:32.426Z,98530.61
2024-01-17T13:18:59.950Z,98529.89
2024-01-17T13:21:27.212Z,98526.64
2024-01-17T13:23:54.288Z,98513.54
2024-01-17T13:26:21.338Z,98513.80
2024-01-17T13:28:48.437Z,98506.84
2024-01-17T13:31:15.861Z,98500.58
2024-01-17T13:33:42.941Z,98494.60
2024-01-17T13:36:10.436Z,98491.24
2024-01-17T13:38:37.518Z,98486.23
2024-01-17T13:41:04.724Z,98480.69
2024-01-17T13:43:31.718Z,98482.08
2024-01-17T13:45:58.674Z,98477.41
2024-01-17T13:48:25.818Z,98474.45
2024-01-17T13:50:52.946Z,98466.02
2024-01-17T13:53:29.815Z,98459.48
2024-01-17T13:55:58.646Z,98449.76
2024-01-17T13:58:26.184Z,98443.98
2024-01-17T14:01:01.429Z,98437.17
2024-01-17T14:03:32.461Z,98431.61
2024-01-17T14:06:00.842Z,98425.98
2024-01-17T14:08:28.053Z,98426.73
2024-01-17T14:10:56.839Z,98427.66
2024-01-17T14:13:25.178Z,98422.09
2024-01-17T14:15:52.138Z,98419.42
2024-01-17T14:18:20.100Z,98418.88
2024-01-17T14:20:47.210Z,98415.63
2024-01-17T14:23:14.248Z,98409.00
2024-01-17T14:25:41.312Z,98407.34
2024-01-17T14:28:09.005Z,98401.24
2024-01-17T14:30:36.144Z,98394.80
2024-01-17T14:33:05.652Z,98385.80
2024-01-17T14:35:37.867Z,98378.60
2024-01-17T14:38:06.292Z,98367.39
2024-01-17T14:40:33.418Z,98353.77
2024-01-17T14:43:00.460Z,98351.41
2024-01-17T14:45:27.586Z,98347.73
2024-01-17T14:47:54.824Z,98341.53
2024-01-17T14:50:22.175Z,98334.48
2024-01-17T14:52:50.035Z,98330.56
2024-01-17T14:55:17.039Z,98323.39
2024-01-17T14:57:45.381Z,98317.16
2024-01-17T15:00:21.868Z,98304.42
2024-01-17T15:02:50.190Z,98291.66
2024-01-17T15:05:18.504Z,98287.67
2024-01-17T15:07:46.979Z,98279.40
2024-01-17T15:10:17.189Z,98273.68
2024-01-17T15:12:44.329Z,98266.42
2024-01-17T15:15:14.409Z,98268.02
2024-01-17T15:17:42.070Z,98258.18
2024-01-17T15:20:11.362Z,98243.53
2024-01-17T15:22:38.754Z,98233.66
2024-01-17T15:25:08.729Z,98228.32
2024-01-17T15:27:37.595Z,98228.88
2024-01-17T15:30:06.604Z,98232.36
2024-01-17T15:32:34.114Z,98241.27
2024-01-17T15:35:02.201Z,98246.89
2024-01-17T15:37:29.678Z,98259.59
2024-01-17T15:39:56.735Z,98256.88
2024-01-17T15:42:24.151Z,98257.13
2024-01-17T15:44:53.554Z,98256.03
2024-01-17T15:47:20.829Z,98255.59
2024-01-17T15:49:47.896Z,98250.30
2024-01-17T15:52:15.957Z,98246.64
2024-01-17T15:54:43.939Z,98242.46
2024-01-17T15:57:11.238Z,98234.98
2024-01-17T15:59:38.520Z,98235.25
2024-01-17T16:02:06.383Z,98231.34
2024-01-17T16:04:36.809Z,98222.44
2024-01-17T16:07:04.648Z,98217.35
2024-01-17T16:09:31.929Z,98211.13
2024-01-17T16:11:59.010Z,98207.94
2024-01-17T16:14:26.342Z,98207.79
2024-01-17T16:16:53.437Z,98200.55
2024-01-17T16:19:20.539Z,98192.65
2024-01-17T16:21:56.733Z,98190.95
2024-01-17T16:24:24.139Z,98180.80
2024-01-17T16:26:51.670Z,98177.58
2024-01-17T16:29:18.633Z,98172.27
2024-01-17T16:31:46.920Z,98174.75
2024-01-17T16:34:14.368Z,98170.03
2024-01-17T16:36:41.491Z,98166.41
2024-01-17T16:39:09.980Z,98157.81
2024-01-17T16:41:36.881Z,98149.44
2024-01-17T16:44:06.710Z,98141.52
2024-01-17T16:46:35.403Z,98136.60
2024-01-17T16:49:02.520Z,98137.34
2024-01-17T16:51:29.583Z,98135.11
2024-01-17T16:53:59.673Z,98135.64
2024-01-17T16:56:26.740Z,98134.63
2024-01-17T16:58:54.349Z,98127.98
2024-01-17T17:01:21.415Z,98123.13
2024-01-17T17:03:48.485Z,98118.31
2024-01-17T17:06:15.525Z,98120.17
2024-01-17T17:08:42.728Z,98117.17
2024-01-17T17:11:09.687Z,98119.46
2024-01-17T17:13:38.423Z,98119.88
2024-01-17T17:16:06.022Z,98111.69
2024-01-17T17:18:33.390Z,98100.61
2024-01-17T17:21:01.050Z,98101.00
2024-01-17T17:23:28.597Z,98094.48
2024-01-17T17:25:57.447Z,98087.85
2024-01-17T17:28:24.713Z,98081.98
2024-01-17T17:30:52.140Z,98073.08
2024-01-17T17:33:19.515Z,98071.75
2024-01-17T17:35:46.875Z,98069.66
2024-01-17T17:38:13.913Z,98064.59
2024-01-17T17:40:43.548Z,98054.61
2024-01-17T17:43:13.224Z,98041.90
2024-01-17T17:45:40.211Z,98036.11
2024-01-17T17:48:07.933Z,98033.86
2024-01-17T17:50:35.352Z,98022.44
2024-01-17T17:53:04.420Z,98015.80
2024-01-17T17:55:31.543Z,98010.15
2024-01-17T17:57:59.173Z,98005.86
2024-01-17T18:00:26.343Z,98000.25
2024-01-17T18:02:53.541Z,97990.60
2024-01-17T18:05:20.641Z,97991.31
2024-01-17T18:07:48.055Z,97987.33
2024-01-17T18:10:15.132Z,97982.94
2024-01-17T18:12:42.114Z,97971.09
2024-01-17T18:15:10.909Z,97979.36
2024-01-17T18:17:38.035Z,97971.48
2024-01-17T18:20:06.758Z,97966.10
2024-01-17T18:22:34.604Z,97958.11
2024-01-17T18:25:01.683Z,97958.92
2024-01-17T18:27:28.762Z,97953.30
2024-01-17T18:29:56.704Z,97945.34
2024-01-17T18:32:23.791Z,97944.08
2024-01-17T18:34:51.579Z,97933.66
2024-01-17T18:37:19.418Z,97936.55
2024-01-17T18:39:46.370Z,97930.17
2024-01-17T18:42:13.468Z,97915.12
2024-01-17T18:44:40.595Z,97907.66
2024-01-17T18:47:07.612Z,97908.05
2024-01-17T18:49:34.762Z,97904.02
2024-01-17T18:52:01.875Z,97902.82
2024-01-17T18:54:29.229Z,97892.39
2024-01-17T18:56:56.357Z,97892.84
2024-01-17T18:59:23.384Z,97881.06
2024-01-17T19:01:50.449Z,97872.70
2024-01-17T19:04:17.814Z,97867.38
2024-01-17T19:06:45.330Z,97874.70
2024-01-17T19:09:17.592Z,97871.34
2024-01-17T19:11:45.012Z,97863.23
2024-01-17T19:14:12.328Z,97854.39
2024-01-17T19:16:42.254Z,97850.30
2024-01-17T19:19:09.605Z,97844.96
2024-01-17T19:21:36.716Z,97840.09
2024-01-17T19:24:05.798Z,97841.98
2024-01-17T19:26:33.031Z,97837.25
2024-01-17T19:29:00.052Z,97829.02
2024-01-17T19:31:27.008Z,97824.88
2024-01-17T19:33:54.888Z,97817.27
2024-01-17T19:36:22.698Z,97821.95
2024-01-17T19:38:50.177Z,97810.57
2024-01-17T19:41:17.241Z,97807.84
2024-01-17T19:43:44.221Z,97806.14
2024-01-17T19:46:12.214Z,97801.36
2024-01-17T19:48:44.382Z,97796.89
2024-01-17T19:51:14.735Z,97794.55
2024-01-17T19:53:41.742Z,97786.98
2024-01-17T19:56:08.775Z,97783.31
2024-01-17T19:58:35.960Z,97776.04
2024-01-17T20:01:02.884Z,97765.18
2024-01-17T20:03:29.979Z,97760.76
2024-01-17T20:05:58.879Z,97759.36
2024-01-17T20:08:25.954Z,97760.76
2024-01-17T20:10:52.946Z,97754.04
2024-01-17T20:13:19.921Z,97760.39
2024-01-17T20:15:48.191Z,97751.42
2024-01-17T20:18:15.250Z,97744.15
2024-01-17T20:20:42.384Z,97741.80
2024-01-17T20:23:10.227Z,97733.92
2024-01-17T20:25:37.235Z,97728.66
2024-01-17T20:28:04.441Z,97727.30
2024-01-17T20:30:31.475Z,97730.47
2024-01-17T20:32:58.759Z,97730.80
2024-01-17T20:35:25.821Z,97722.70
2024-01-17T20:37:52.745Z,97720.45
2024-01-17T20:40:19.724Z,97725.42
2024-01-17T20:42:46.948Z,97719.73
2024-01-17T20:45:13.949Z,97719.89
2024-01-17T20:47:41.036Z,97710.39
2024-01-17T20:50:09.003Z,97703.96
2024-01-17T20:52:37.580Z,97700.70
2024-01-17T20:55:04.801Z,97695.23
2024-01-17T20:57:32.657Z,97691.90
2024-01-17T20:59:59.792Z,97682.85
2024-01-17T21:02:26.935Z,97679.66
2024-01-17T21:04:54.025Z,97678.04
2024-01-17T21:07:23.814Z,97678.71
2024-01-17T21:09:52.252Z,97670.20
2024-01-17T21:12:19.601Z,97666.26
2024-01-17T21:14:49.875Z,97659.92
2024-01-17T21:17:16.893Z,97648.85
2024-01-17T21:19:43.912Z,97647.51
2024-01-17T21:22:12.797Z,97646.44
2024-01-17T21:24:39.784Z,97639.37
2024-01-17T21:27:06.855Z,97631.54
2024-01-17T21:29:33.893Z,97630.38
2024-01-17T21:32:00.938Z,97625.44
2024-01-17T21:34:28.095Z,97623.13
2024-01-17T21:36:55.174Z,97620.28
2024-01-17T21:39:22.155Z,97617.29
2024-01-17T21:41:49.193Z,97615.63
2024-01-17T21:44:16.229Z,97613.80
2024-01-17T21:46:48.860Z,97616.98
2024-01-17T21:49:18.043Z,97607.91
2024-01-17T21:51:45.109Z,97597.52
2024-01-17T21:54:12.383Z,97593.71
2024-01-17T21:56:39.832Z,97588.73
2024-01-17T21:59:06.929Z,97584.48
2024-01-17T22:01:34.158Z,97577.38
2024-01-17T22:04:01.244Z,97568.55
2024-01-17T22:06:29.666Z,97567.19
2024-01-17T22:08:59.453Z,97567.90
2024-01-17T22:11:26.915Z,97571.24
2024-01-17T22:13:54.022Z,97566.18
2024-01-17T22:16:21.048Z,97555.04
2024-01-17T22:18:48.150Z,97552.89
2024-01-17T22:21:18.982Z,97548.58
2024-01-17T22:23:46.285Z,97541.52
2024-01-17T22:26:13.592Z,97542.73
2024-01-17T22:28:40.537Z,97538.54
2024-01-17T22:31:08.212Z,97530.11
2024-01-17T22:33:36.519Z,97520.48
2024-01-17T22:36:03.945Z,97517.77
2024-01-17T22:38:31.088Z,97511.08
2024-01-17T22:40:58.100Z,97513.78
2024-01-17T22:43:25.083Z,97513.48
2024-01-17T22:45:52.068Z,97508.66
2024-01-17T22:48:19.689Z,97504.02
2024-01-17T22:50:46.744Z,97496.94
2024-01-17T22:53:15.728Z,97490.33
2024-01-17T22:55:43.132Z,97481.62
2024-01-17T22:58:12.717Z,97475.77
2024-01-17T23:00:41.835Z,97471.00
2024-01-17T23:03:09.186Z,97469.27
2024-01-17T23:05:36.654Z,97465.67
2024-01-17T23:08:35.694Z,97459.69
2024-01-17T23:11:12.102Z,97448.41
2024-01-17T23:13:47.518Z,97446.24
2024-01-17T23:16:14.522Z,97443.98
2024-01-17T23:18:41.619Z,97442.16
2024-01-17T23:21:08.762Z,97436.47
2024-01-17T23:23:35.771Z,97434.20
2024-01-17T23:26:03.194Z,97430.83
2024-01-17T23:28:30.174Z,97421.51
2024-01-17T23:30:57.134Z,97408.52
2024-01-17T23:33:24.237Z,97404.25
2024-01-17T23:35:51.354Z,97409.29
2024-01-17T23:38:18.310Z,97414.44
2024-01-17T23:40:45.211Z,97405.73
2024-01-17T23:43:12.172Z,97407.92
2024-01-17T23:45:39.156Z,97411.41
2024-01-17T23:48:06.405Z,97406.23
2024-01-17T23:50:33.554Z,97406.34
2024-01-17T23:53:00.510Z,97401.38
2024-01-17T23:55:27.595Z,97394.95
2024-01-17T23:57:54.702Z,97392.82
